Time;durP1;ratioP1;P1;durP2;ratioP2;P2;SDS_P1;SDS_P2;PMS_P1;PMS_P2;Temp;Humidity;BMP_temperature;BMP_pressure;BME280_temperature;BME280_humidity;BME280_pressure;Samples;Min_cycle;Max_cycle;Signal;HPM_P1;HPM_P2
2022/02/26 00:01:33;;;;;;;45.53;4.50;;;;;;;;;;5054141;28;20039;-73
2022/02/26 00:03:59;;;;;;;15.73;3.27;;;;;;;;;;5038113;28;20288;-71
2022/02/26 00:06:24;;;;;;;21.67;3.83;;;;;;;;;;5046253;28;20028;-71
2022/02/26 00:08:49;;;;;;;17.53;3.50;;;;;;;;;;5048237;28;20107;-72
2022/02/26 00:11:15;;;;;;;22.70;3.40;;;;;;;;;;5049953;28;20028;-71
2022/02/26 00:13:41;;;;;;;12.43;2.30;;;;;;;;;;5051007;28;20557;-72
2022/02/26 00:16:06;;;;;;;18.47;3.43;;;;;;;;;;5043289;28;20039;-72
2022/02/26 00:18:31;;;;;;;26.30;3.50;;;;;;;;;;5045694;28;20074;-72
2022/02/26 00:20:57;;;;;;;20.33;2.57;;;;;;;;;;5052729;28;20469;-72
2022/02/26 00:23:22;;;;;;;16.93;3.47;;;;;;;;;;5045459;28;20232;-71
2022/02/26 00:25:47;;;;;;;15.63;3.13;;;;;;;;;;5041674;28;20448;-71
2022/02/26 00:28:13;;;;;;;17.00;2.83;;;;;;;;;;5036427;28;20024;-71
2022/02/26 00:30:38;;;;;;;25.63;3.17;;;;;;;;;;5030293;28;20033;-71
2022/02/26 00:33:04;;;;;;;14.80;3.33;;;;;;;;;;5045020;28;20471;-71
2022/02/26 00:35:30;;;;;;;18.77;3.40;;;;;;;;;;5039940;28;20029;-71
2022/02/26 00:37:55;;;;;;;27.27;4.27;;;;;;;;;;5044843;28;20021;-71
2022/02/26 00:40:20;;;;;;;22.93;3.13;;;;;;;;;;5051668;28;20096;-71
2022/02/26 00:42:45;;;;;;;21.00;3.90;;;;;;;;;;5042252;28;20286;-71
2022/02/26 00:45:11;;;;;;;28.73;4.70;;;;;;;;;;5034989;28;20039;-71
2022/02/26 00:47:36;;;;;;;15.33;3.40;;;;;;;;;;5043746;28;20032;-72
2022/02/26 00:50:03;;;;;;;13.93;4.40;;;;;;;;;;5045779;28;20017;-71
2022/02/26 00:52:31;;;;;;;16.30;2.40;;;;;;;;;;5051772;28;20032;-72
2022/02/26 00:54:56;;;;;;;14.17;2.40;;;;;;;;;;5044113;28;20480;-72
2022/02/26 00:57:22;;;;;;;18.30;3.47;;;;;;;;;;5042229;28;20029;-72
2022/02/26 00:59:47;;;;;;;16.03;2.93;;;;;;;;;;5041615;28;20174;-72
2022/02/26 01:02:13;;;;;;;28.57;4.37;;;;;;;;;;5046255;28;20204;-72
2022/02/26 01:04:40;;;;;;;18.90;3.47;;;;;;;;;;5035175;28;20029;-71
2022/02/26 01:07:05;;;;;;;17.53;2.80;;;;;;;;;;5033663;28;20041;-72
2022/02/26 01:09:31;;;;;;;16.63;3.57;;;;;;;;;;5044724;28;20293;-72
2022/02/26 01:11:57;;;;;;;14.43;3.17;;;;;;;;;;5043536;28;20029;-72
2022/02/26 01:14:22;;;;;;;14.43;3.43;;;;;;;;;;5054591;28;20105;-72
2022/02/26 01:16:47;;;;;;;28.57;5.00;;;;;;;;;;5046636;28;20447;-72
2022/02/26 01:19:13;;;;;;;15.63;3.10;;;;;;;;;;5046371;28;20033;-72
2022/02/26 01:21:38;;;;;;;20.77;3.50;;;;;;;;;;5036970;28;20040;-72
2022/02/26 01:24:03;;;;;;;23.17;4.17;;;;;;;;;;5038860;28;20045;-72
2022/02/26 01:26:29;;;;;;;26.17;3.67;;;;;;;;;;5046474;28;20394;-72
2022/02/26 01:28:55;;;;;;;18.63;3.07;;;;;;;;;;5054645;28;20020;-72
2022/02/26 01:31:20;;;;;;;17.13;3.13;;;;;;;;;;5042991;28;20109;-72
2022/02/26 01:33:45;;;;;;;27.87;4.40;;;;;;;;;;5048748;28;20029;-72
2022/02/26 01:36:11;;;;;;;28.60;4.03;;;;;;;;;;5046737;28;20048;-72
2022/02/26 01:38:37;;;;;;;21.83;3.80;;;;;;;;;;5049928;28;20059;-72
2022/02/26 01:41:03;;;;;;;29.17;3.97;;;;;;;;;;5045790;28;20056;-72
2022/02/26 01:43:28;;;;;;;28.83;4.03;;;;;;;;;;5039949;28;20248;-72
2022/02/26 01:45:54;;;;;;;23.33;3.73;;;;;;;;;;5043440;28;20094;-71
2022/02/26 01:48:19;;;;;;;25.60;3.27;;;;;;;;;;5045252;28;20305;-71
2022/02/26 01:50:45;;;;;;;20.23;3.33;;;;;;;;;;5046306;28;20025;-71
2022/02/26 01:53:10;;;;;;;18.00;3.17;;;;;;;;;;5057072;28;20068;-71
2022/02/26 01:55:36;;;;;;;14.97;3.33;;;;;;;;;;5046415;28;20029;-71
2022/02/26 01:58:02;;;;;;;31.80;5.37;;;;;;;;;;5038000;28;20035;-71
2022/02/26 02:00:27;;;;;;;22.80;4.20;;;;;;;;;;5040278;28;20025;-71
2022/02/26 02:02:54;;;;;;;24.63;4.17;;;;;;;;;;5049397;28;20306;-71
2022/02/26 02:05:20;;;;;;;21.87;3.40;;;;;;;;;;5046346;28;20029;-71
2022/02/26 02:07:45;;;;;;;31.13;3.77;;;;;;;;;;5046770;28;20579;-71
2022/02/26 02:10:10;;;;;;;56.37;6.90;;;;;;;;;;5048959;28;20017;-71
2022/02/26 02:12:36;;;;;;;17.10;4.33;;;;;;;;;;5043901;28;20017;-71
2022/02/26 02:15:01;;;;;;;19.27;3.30;;;;;;;;;;5050804;28;20017;-71
2022/02/26 02:17:26;;;;;;;31.40;4.23;;;;;;;;;;5043158;28;20225;-71
2022/02/26 02:19:52;;;;;;;15.97;3.23;;;;;;;;;;5047608;28;20397;-71
2022/02/26 02:22:18;;;;;;;20.93;3.70;;;;;;;;;;5046163;28;20021;-71
2022/02/26 02:24:43;;;;;;;20.60;3.50;;;;;;;;;;5048815;28;20031;-71
2022/02/26 02:27:09;;;;;;;24.90;3.90;;;;;;;;;;5038824;28;20412;-71
2022/02/26 02:29:34;;;;;;;34.43;4.97;;;;;;;;;;5044543;28;20028;-71
2022/02/26 02:31:59;;;;;;;26.70;3.63;;;;;;;;;;5040340;28;20048;-71
2022/02/26 02:34:25;;;;;;;21.00;4.27;;;;;;;;;;5038762;28;20029;-71
2022/02/26 02:36:50;;;;;;;13.37;2.17;;;;;;;;;;5044152;28;20303;-71
2022/02/26 02:39:15;;;;;;;13.63;2.37;;;;;;;;;;5040218;28;20605;-70
2022/02/26 02:41:41;;;;;;;19.70;4.13;;;;;;;;;;5040330;28;20025;-71
2022/02/26 02:44:06;;;;;;;27.67;4.10;;;;;;;;;;5044926;28;20191;-71
2022/02/26 02:46:32;;;;;;;19.03;3.10;;;;;;;;;;5043734;28;20037;-71
2022/02/26 02:48:57;;;;;;;18.10;3.67;;;;;;;;;;5031934;28;20025;-71
2022/02/26 02:51:23;;;;;;;18.27;3.73;;;;;;;;;;5037738;28;20518;-71
2022/02/26 02:53:48;;;;;;;23.70;3.40;;;;;;;;;;5046228;28;20088;-71
2022/02/26 02:56:13;;;;;;;22.53;3.33;;;;;;;;;;5043281;28;20279;-71
2022/02/26 02:58:39;;;;;;;22.37;3.77;;;;;;;;;;5037054;28;20029;-71
2022/02/26 03:01:04;;;;;;;25.50;3.50;;;;;;;;;;5042782;28;20103;-71
2022/02/26 03:03:29;;;;;;;18.43;3.10;;;;;;;;;;5043194;28;20127;-71
2022/02/26 03:05:55;;;;;;;25.30;3.03;;;;;;;;;;5045086;28;20039;-71
2022/02/26 03:08:23;;;;;;;19.77;4.03;;;;;;;;;;5054540;28;20466;-71
2022/02/26 03:10:49;;;;;;;22.03;3.00;;;;;;;;;;5047789;28;20565;-71
2022/02/26 03:13:14;;;;;;;20.90;4.40;;;;;;;;;;5034170;28;20357;-71
2022/02/26 03:15:39;;;;;;;23.10;3.57;;;;;;;;;;5050284;28;20049;-71
2022/02/26 03:18:04;;;;;;;18.23;3.47;;;;;;;;;;5035131;28;20029;-71
2022/02/26 03:20:30;;;;;;;27.33;5.33;;;;;;;;;;5037592;28;20024;-71
2022/02/26 03:22:55;;;;;;;37.23;3.57;;;;;;;;;;5036579;28;20047;-71
2022/02/26 03:25:23;;;;;;;23.23;3.10;;;;;;;;;;5035424;28;20032;-71
2022/02/26 03:27:48;;;;;;;25.80;3.40;;;;;;;;;;5039093;28;20020;-71
2022/02/26 03:30:14;;;;;;;40.30;4.10;;;;;;;;;;5038355;28;20029;-73
2022/02/26 03:32:39;;;;;;;20.23;3.57;;;;;;;;;;5036731;28;20081;-71
2022/02/26 03:35:05;;;;;;;21.93;3.37;;;;;;;;;;5028853;28;20029;-71
2022/02/26 03:37:31;;;;;;;18.97;2.90;;;;;;;;;;5035034;28;20036;-70
2022/02/26 03:39:56;;;;;;;35.13;5.97;;;;;;;;;;5039433;28;20262;-71
2022/02/26 03:42:22;;;;;;;15.47;4.40;;;;;;;;;;5039083;28;20473;-71
2022/02/26 03:44:48;;;;;;;33.03;3.93;;;;;;;;;;5051745;28;20033;-71
2022/02/26 03:47:14;;;;;;;24.57;3.77;;;;;;;;;;5031714;28;20536;-71
2022/02/26 03:49:40;;;;;;;23.70;3.97;;;;;;;;;;5035375;28;20052;-71
2022/02/26 03:52:05;;;;;;;23.07;3.13;;;;;;;;;;5028951;28;20112;-71
2022/02/26 03:54:30;;;;;;;27.50;3.93;;;;;;;;;;5034164;28;20284;-73
2022/02/26 03:56:55;;;;;;;16.73;4.50;;;;;;;;;;5050842;28;20024;-73
2022/02/26 03:59:21;;;;;;;16.97;3.30;;;;;;;;;;5037420;28;20552;-70
2022/02/26 04:01:46;;;;;;;22.17;3.37;;;;;;;;;;5039879;28;20052;-71
2022/02/26 04:04:11;;;;;;;27.63;5.57;;;;;;;;;;5030433;28;20040;-71
2022/02/26 04:06:37;;;;;;;19.40;3.43;;;;;;;;;;5038978;28;20129;-71
2022/02/26 04:09:03;;;;;;;32.87;4.73;;;;;;;;;;5038430;28;20021;-71
2022/02/26 04:11:28;;;;;;;24.27;3.17;;;;;;;;;;5038925;28;20305;-71
2022/02/26 04:13:53;;;;;;;36.20;4.60;;;;;;;;;;5034875;28;20360;-71
2022/02/26 04:16:19;;;;;;;20.70;3.63;;;;;;;;;;5039632;28;20025;-73
2022/02/26 04:18:44;;;;;;;26.67;4.07;;;;;;;;;;5030553;28;20028;-73
2022/02/26 04:21:09;;;;;;;13.73;2.50;;;;;;;;;;5029561;28;20044;-73
2022/02/26 04:23:34;;;;;;;19.93;4.03;;;;;;;;;;5040129;28;20033;-73
2022/02/26 04:26:00;;;;;;;17.07;2.47;;;;;;;;;;5036743;28;20043;-74
2022/02/26 04:28:25;;;;;;;18.03;3.90;;;;;;;;;;5033100;28;20512;-74
2022/02/26 04:30:51;;;;;;;13.47;2.87;;;;;;;;;;5044592;28;20020;-74
2022/02/26 04:33:16;;;;;;;13.17;3.77;;;;;;;;;;5039688;28;20032;-74
2022/02/26 04:35:42;;;;;;;23.40;4.23;;;;;;;;;;5032967;28;20271;-72
2022/02/26 04:38:07;;;;;;;15.23;2.77;;;;;;;;;;5030735;28;20029;-72
2022/02/26 04:40:32;;;;;;;29.73;3.77;;;;;;;;;;5021208;28;20278;-72
2022/02/26 04:42:58;;;;;;;22.57;3.67;;;;;;;;;;5033737;28;20593;-72
2022/02/26 04:45:26;;;;;;;20.00;3.93;;;;;;;;;;5036800;28;20473;-72
2022/02/26 04:47:51;;;;;;;19.60;4.03;;;;;;;;;;5031721;28;20106;-72
2022/02/26 04:50:16;;;;;;;21.30;3.30;;;;;;;;;;5026927;28;20079;-71
2022/02/26 04:52:42;;;;;;;15.20;3.50;;;;;;;;;;5028210;28;20454;-72
2022/02/26 04:55:08;;;;;;;32.87;4.57;;;;;;;;;;5032750;28;20104;-72
2022/02/26 04:57:33;;;;;;;25.17;3.23;;;;;;;;;;5035234;28;20033;-72
2022/02/26 04:59:58;;;;;;;22.70;3.17;;;;;;;;;;5028412;28;20473;-72
2022/02/26 05:02:24;;;;;;;21.07;3.73;;;;;;;;;;5036148;28;20057;-72
2022/02/26 05:04:49;;;;;;;16.33;3.40;;;;;;;;;;5040395;28;20537;-72
2022/02/26 05:07:15;;;;;;;20.70;3.80;;;;;;;;;;5039096;28;20024;-72
2022/02/26 05:09:41;;;;;;;15.03;2.73;;;;;;;;;;5038274;28;20051;-72
2022/02/26 05:12:07;;;;;;;15.10;3.47;;;;;;;;;;5031094;28;20029;-72
2022/02/26 05:14:32;;;;;;;19.03;3.93;;;;;;;;;;5034866;28;20482;-72
2022/02/26 05:16:57;;;;;;;21.67;4.47;;;;;;;;;;5026724;28;20030;-71
2022/02/26 05:19:22;;;;;;;20.90;3.50;;;;;;;;;;5046427;28;20037;-71
2022/02/26 05:21:48;;;;;;;50.60;5.03;;;;;;;;;;5034042;28;20040;-72
2022/02/26 05:24:13;;;;;;;14.37;3.20;;;;;;;;;;5027283;28;20048;-72
2022/02/26 05:26:38;;;;;;;21.43;3.80;;;;;;;;;;5029516;28;20029;-72
2022/02/26 05:29:04;;;;;;;27.43;4.13;;;;;;;;;;5035784;28;20402;-72
2022/02/26 05:31:29;;;;;;;25.33;3.50;;;;;;;;;;5028325;28;20596;-71
2022/02/26 05:33:54;;;;;;;21.63;4.40;;;;;;;;;;5036164;28;20055;-72
2022/02/26 05:36:19;;;;;;;24.63;3.77;;;;;;;;;;5033734;28;20057;-72
2022/02/26 05:38:45;;;;;;;14.40;3.00;;;;;;;;;;5039357;28;20068;-72
2022/02/26 05:41:10;;;;;;;32.30;5.20;;;;;;;;;;5042076;28;20426;-71
2022/02/26 05:43:35;;;;;;;21.50;3.67;;;;;;;;;;5031175;28;20326;-72
2022/02/26 05:46:01;;;;;;;34.30;4.60;;;;;;;;;;5037909;28;20547;-72
2022/02/26 05:48:26;;;;;;;29.07;5.77;;;;;;;;;;5039723;28;20245;-72
2022/02/26 05:50:51;;;;;;;28.17;4.17;;;;;;;;;;5031722;28;20021;-72
2022/02/26 05:53:17;;;;;;;19.13;3.50;;;;;;;;;;5032157;28;20052;-72
2022/02/26 05:55:42;;;;;;;18.67;3.30;;;;;;;;;;5041929;28;20041;-72
2022/02/26 05:58:07;;;;;;;20.37;3.60;;;;;;;;;;5041896;28;20424;-71
2022/02/26 06:00:33;;;;;;;22.33;3.87;;;;;;;;;;5030062;28;20029;-72
2022/02/26 06:02:58;;;;;;;22.73;4.63;;;;;;;;;;5036605;28;20365;-72
2022/02/26 06:05:23;;;;;;;18.13;4.60;;;;;;;;;;5039761;28;20036;-72
2022/02/26 06:07:48;;;;;;;24.23;4.33;;;;;;;;;;5034606;28;20102;-72
2022/02/26 06:10:14;;;;;;;24.53;4.77;;;;;;;;;;5032727;28;20389;-72
2022/02/26 06:12:39;;;;;;;24.87;3.77;;;;;;;;;;5038879;28;20031;-71
2022/02/26 06:15:04;;;;;;;25.43;3.43;;;;;;;;;;5044368;28;20059;-72
2022/02/26 06:17:30;;;;;;;24.43;4.80;;;;;;;;;;5036082;28;20039;-71
2022/02/26 06:19:55;;;;;;;35.27;4.97;;;;;;;;;;5036558;28;20029;-72
2022/02/26 06:22:20;;;;;;;44.67;7.23;;;;;;;;;;5046654;28;20020;-72
2022/02/26 06:24:46;;;;;;;23.60;3.60;;;;;;;;;;5036720;28;20253;-72
2022/02/26 06:27:11;;;;;;;27.17;4.77;;;;;;;;;;5038988;28;20090;-72
2022/02/26 06:29:36;;;;;;;16.60;3.60;;;;;;;;;;5039593;28;20028;-71
2022/02/26 06:32:01;;;;;;;19.07;3.60;;;;;;;;;;5038641;28;20033;-72
2022/02/26 06:34:28;;;;;;;15.67;3.77;;;;;;;;;;5035326;28;20024;-71
2022/02/26 06:36:53;;;;;;;18.40;4.57;;;;;;;;;;5040786;28;20378;-71
2022/02/26 06:39:19;;;;;;;19.00;3.80;;;;;;;;;;5037366;28;20036;-71
2022/02/26 06:41:45;;;;;;;17.67;4.07;;;;;;;;;;5037736;28;20061;-71
2022/02/26 06:44:10;;;;;;;19.07;4.70;;;;;;;;;;5031915;28;20595;-71
2022/02/26 06:46:37;;;;;;;24.00;4.37;;;;;;;;;;5034867;28;20532;-71
2022/02/26 06:49:03;;;;;;;16.67;5.13;;;;;;;;;;5033332;28;20013;-71
2022/02/26 06:51:28;;;;;;;23.93;4.73;;;;;;;;;;5032792;28;20033;-72
2022/02/26 06:53:54;;;;;;;14.60;3.63;;;;;;;;;;5032467;28;20392;-72
2022/02/26 06:56:19;;;;;;;27.90;4.60;;;;;;;;;;5027500;28;20382;-72
2022/02/26 06:58:44;;;;;;;27.67;3.80;;;;;;;;;;5038880;28;20162;-72
2022/02/26 07:01:10;;;;;;;33.93;5.63;;;;;;;;;;5040315;28;20534;-72
2022/02/26 07:03:35;;;;;;;23.60;3.70;;;;;;;;;;5037582;28;20049;-72
2022/02/26 07:06:00;;;;;;;24.23;5.50;;;;;;;;;;5037655;28;20020;-71
2022/02/26 07:08:27;;;;;;;20.63;4.97;;;;;;;;;;5036766;28;20061;-71
2022/02/26 07:10:53;;;;;;;23.70;5.30;;;;;;;;;;5037319;28;20024;-71
2022/02/26 07:13:18;;;;;;;21.57;5.13;;;;;;;;;;5026728;28;20165;-71
2022/02/26 07:15:43;;;;;;;29.03;5.30;;;;;;;;;;5027939;28;20466;-71
2022/02/26 07:18:10;;;;;;;27.80;7.37;;;;;;;;;;5032270;28;20023;-71
2022/02/26 07:20:35;;;;;;;22.23;5.43;;;;;;;;;;5022615;28;20166;-72
2022/02/26 07:23:00;;;;;;;20.03;4.53;;;;;;;;;;5033621;28;20047;-72
2022/02/26 07:25:26;;;;;;;26.37;5.00;;;;;;;;;;5025828;28;20033;-71
2022/02/26 07:27:51;;;;;;;33.87;6.67;;;;;;;;;;5041136;28;20036;-72
2022/02/26 07:30:16;;;;;;;19.40;5.33;;;;;;;;;;5023123;28;20302;-72
2022/02/26 07:32:41;;;;;;;26.23;5.33;;;;;;;;;;5023981;28;20084;-72
2022/02/26 07:35:07;;;;;;;25.37;4.80;;;;;;;;;;5032530;28;20213;-72
2022/02/26 07:37:32;;;;;;;29.60;5.50;;;;;;;;;;5022103;28;20109;-73
2022/02/26 07:39:57;;;;;;;26.43;5.90;;;;;;;;;;5034231;28;20104;-71
2022/02/26 07:42:23;;;;;;;23.47;4.40;;;;;;;;;;5028358;28;20397;-72
2022/02/26 07:44:48;;;;;;;28.07;5.97;;;;;;;;;;5024404;28;20037;-72
2022/02/26 07:47:13;;;;;;;19.00;3.87;;;;;;;;;;5022038;28;20045;-72
2022/02/26 07:49:39;;;;;;;14.70;3.47;;;;;;;;;;5032377;28;20329;-72
2022/02/26 07:52:04;;;;;;;15.73;4.07;;;;;;;;;;5021737;28;20519;-71
2022/02/26 07:54:29;;;;;;;26.17;5.60;;;;;;;;;;5027123;28;20025;-72
2022/02/26 07:56:54;;;;;;;21.67;3.70;;;;;;;;;;5035601;28;20075;-72
2022/02/26 07:59:20;;;;;;;38.10;6.73;;;;;;;;;;5029913;28;20104;-72
2022/02/26 08:01:46;;;;;;;12.90;4.13;;;;;;;;;;5031714;28;20184;-71
2022/02/26 08:04:11;;;;;;;24.87;3.60;;;;;;;;;;5036534;28;20029;-72
2022/02/26 08:06:36;;;;;;;17.30;3.33;;;;;;;;;;5044889;28;20055;-72
2022/02/26 08:09:02;;;;;;;15.93;4.30;;;;;;;;;;5043770;28;20111;-71
2022/02/26 08:11:30;;;;;;;22.17;2.87;;;;;;;;;;5030494;28;20427;-71
2022/02/26 08:13:56;;;;;;;18.50;3.40;;;;;;;;;;5033523;28;20035;-71
2022/02/26 08:16:23;;;;;;;15.87;3.37;;;;;;;;;;5039179;28;20251;-71
2022/02/26 08:18:48;;;;;;;11.73;2.43;;;;;;;;;;5036506;28;20535;-71
2022/02/26 08:21:13;;;;;;;10.00;2.50;;;;;;;;;;5020322;28;20021;-70
2022/02/26 08:23:39;;;;;;;9.90;1.63;;;;;;;;;;5033906;28;20033;-70
2022/02/26 08:26:05;;;;;;;11.27;1.60;;;;;;;;;;5028586;28;20046;-70
2022/02/26 08:28:30;;;;;;;16.57;2.20;;;;;;;;;;5027891;28;20033;-70
2022/02/26 08:30:56;;;;;;;10.57;1.90;;;;;;;;;;5037686;28;20382;-69
2022/02/26 08:33:21;;;;;;;10.50;2.00;;;;;;;;;;5025294;28;20061;-70
2022/02/26 08:35:46;;;;;;;15.53;1.90;;;;;;;;;;5033433;28;20017;-70
2022/02/26 08:38:11;;;;;;;8.00;2.00;;;;;;;;;;5032024;28;20055;-70
2022/02/26 08:40:37;;;;;;;9.80;2.30;;;;;;;;;;5033442;28;20029;-70
2022/02/26 08:43:02;;;;;;;10.00;1.70;;;;;;;;;;5026777;28;20108;-70
2022/02/26 08:45:27;;;;;;;10.50;2.07;;;;;;;;;;5029205;28;20287;-70
2022/02/26 08:47:53;;;;;;;9.67;1.53;;;;;;;;;;5038142;28;20155;-70
2022/02/26 08:50:21;;;;;;;8.57;1.67;;;;;;;;;;5026137;28;20182;-70
2022/02/26 08:52:46;;;;;;;9.00;1.70;;;;;;;;;;5049056;28;20025;-70
2022/02/26 08:55:11;;;;;;;11.67;1.70;;;;;;;;;;5038457;28;20365;-70
2022/02/26 08:57:37;;;;;;;8.50;1.50;;;;;;;;;;5038414;28;20033;-70
2022/02/26 09:00:03;;;;;;;9.20;2.50;;;;;;;;;;5034521;28;20029;-70
2022/02/26 09:02:28;;;;;;;8.10;1.80;;;;;;;;;;5037660;28;20292;-70
2022/02/26 09:04:54;;;;;;;14.67;1.90;;;;;;;;;;5038203;28;20412;-70
2022/02/26 09:07:19;;;;;;;8.93;1.93;;;;;;;;;;5037516;28;20246;-69
2022/02/26 09:09:44;;;;;;;7.60;1.70;;;;;;;;;;5035867;28;20033;-70
2022/02/26 09:12:09;;;;;;;10.47;1.80;;;;;;;;;;5038294;28;20120;-69
2022/02/26 09:14:35;;;;;;;6.37;1.97;;;;;;;;;;5038537;28;20328;-69
2022/02/26 09:17:00;;;;;;;22.67;3.00;;;;;;;;;;5031644;28;20025;-69
2022/02/26 09:19:25;;;;;;;14.57;2.30;;;;;;;;;;5026291;28;20278;-70
2022/02/26 09:21:50;;;;;;;12.20;2.10;;;;;;;;;;5032433;28;20019;-70
2022/02/26 09:24:16;;;;;;;14.23;2.60;;;;;;;;;;5037874;28;20477;-70
2022/02/26 09:26:41;;;;;;;11.47;2.20;;;;;;;;;;5037372;28;20029;-70
2022/02/26 09:29:06;;;;;;;7.93;1.83;;;;;;;;;;5037922;28;20120;-71
2022/02/26 09:31:32;;;;;;;8.30;2.23;;;;;;;;;;5037932;28;20075;-71
2022/02/26 09:33:57;;;;;;;10.07;2.20;;;;;;;;;;5038378;28;20036;-71
2022/02/26 09:36:22;;;;;;;17.00;2.43;;;;;;;;;;5036618;28;20517;-70
2022/02/26 09:38:48;;;;;;;8.00;1.80;;;;;;;;;;5037950;28;20293;-71
2022/02/26 09:41:13;;;;;;;8.97;2.23;;;;;;;;;;5037833;28;20029;-71
2022/02/26 09:43:39;;;;;;;8.60;2.90;;;;;;;;;;5047156;28;20570;-71
2022/02/26 09:46:04;;;;;;;16.43;2.47;;;;;;;;;;5034229;28;20029;-71
2022/02/26 09:48:30;;;;;;;16.27;3.20;;;;;;;;;;5041444;28;20381;-71
2022/02/26 09:50:57;;;;;;;16.03;2.10;;;;;;;;;;5040216;28;20013;-71
2022/02/26 09:53:22;;;;;;;16.53;2.37;;;;;;;;;;5037653;28;20082;-70
2022/02/26 09:55:48;;;;;;;8.33;2.37;;;;;;;;;;5040641;28;20028;-70
2022/02/26 09:58:15;;;;;;;14.03;2.00;;;;;;;;;;5026162;28;20044;-71
2022/02/26 10:00:40;;;;;;;10.57;1.93;;;;;;;;;;5028929;28;20578;-70
2022/02/26 10:03:05;;;;;;;12.93;1.87;;;;;;;;;;5027453;28;20140;-71
2022/02/26 10:05:32;;;;;;;13.47;2.40;;;;;;;;;;5027241;28;20024;-71
2022/02/26 10:07:57;;;;;;;12.70;2.30;;;;;;;;;;5029853;28;20029;-71
2022/02/26 10:10:27;;;;;;;12.07;2.23;;;;;;;;;;5033083;28;20024;-71
2022/02/26 10:12:56;;;;;;;12.03;1.63;;;;;;;;;;5030643;28;20481;-71
2022/02/26 10:15:39;;;;;;;15.00;2.33;;;;;;;;;;5026704;28;20037;-71
2022/02/26 10:18:11;;;;;;;8.53;1.80;;;;;;;;;;5031732;28;20021;-71
2022/02/26 10:20:44;;;;;;;12.90;2.57;;;;;;;;;;5033551;28;20108;-71
2022/02/26 10:23:11;;;;;;;11.97;2.00;;;;;;;;;;5034100;28;20036;-71
2022/02/26 10:25:37;;;;;;;11.47;2.20;;;;;;;;;;5033168;28;20025;-70
2022/02/26 10:28:02;;;;;;;10.63;1.60;;;;;;;;;;5027926;28;20027;-71
2022/02/26 10:30:32;;;;;;;17.07;3.27;;;;;;;;;;5035187;28;20059;-71
2022/02/26 10:33:08;;;;;;;8.47;2.50;;;;;;;;;;5025438;28;20135;-71
2022/02/26 10:35:56;;;;;;;14.63;2.43;;;;;;;;;;5025931;28;20024;-72
2022/02/26 10:38:23;;;;;;;11.73;2.33;;;;;;;;;;5024265;28;20031;-71
2022/02/26 10:41:06;;;;;;;12.87;2.40;;;;;;;;;;5031146;28;20544;-71
2022/02/26 10:43:42;;;;;;;13.57;2.53;;;;;;;;;;5026025;28;20387;-71
2022/02/26 10:46:14;;;;;;;12.77;2.07;;;;;;;;;;5026790;28;20033;-71
2022/02/26 10:48:40;;;;;;;10.87;2.03;;;;;;;;;;5027456;28;20033;-71
2022/02/26 10:51:11;;;;;;;16.33;3.20;;;;;;;;;;5032596;28;20031;-71
2022/02/26 10:53:40;;;;;;;13.93;2.10;;;;;;;;;;5030092;28;20504;-71
2022/02/26 10:56:05;;;;;;;9.80;2.37;;;;;;;;;;5036015;28;20356;-71
2022/02/26 10:58:31;;;;;;;18.57;2.63;;;;;;;;;;5036217;28;20037;-71
2022/02/26 11:01:00;;;;;;;8.47;2.53;;;;;;;;;;5030159;28;20032;-71
2022/02/26 11:03:25;;;;;;;9.07;2.27;;;;;;;;;;5027835;28;20202;-71
2022/02/26 11:05:52;;;;;;;14.10;2.00;;;;;;;;;;5035261;28;20036;-71
2022/02/26 11:08:17;;;;;;;13.73;2.43;;;;;;;;;;5030674;28;20033;-71
2022/02/26 11:10:44;;;;;;;8.40;3.20;;;;;;;;;;5037313;28;20108;-71
2022/02/26 11:13:09;;;;;;;11.83;3.43;;;;;;;;;;5034081;28;20060;-71
2022/02/26 11:15:36;;;;;;;11.80;2.47;;;;;;;;;;5037725;28;20025;-71
2022/02/26 11:18:01;;;;;;;17.97;2.73;;;;;;;;;;5037547;28;20024;-71
2022/02/26 11:20:28;;;;;;;12.03;2.80;;;;;;;;;;5038816;28;20589;-71
2022/02/26 11:22:57;;;;;;;19.80;3.20;;;;;;;;;;5041027;28;20504;-71
2022/02/26 11:25:23;;;;;;;8.83;2.37;;;;;;;;;;5038582;28;20073;-71
2022/02/26 11:27:48;;;;;;;9.00;2.63;;;;;;;;;;5045096;28;20469;-72
2022/02/26 11:30:16;;;;;;;12.33;2.20;;;;;;;;;;5046535;28;20024;-71
2022/02/26 11:32:43;;;;;;;15.10;2.50;;;;;;;;;;5053044;28;20365;-71
2022/02/26 11:35:16;;;;;;;24.40;3.40;;;;;;;;;;5038260;28;20044;-70
2022/02/26 11:37:41;;;;;;;10.30;2.73;;;;;;;;;;5034729;28;20036;-70
2022/02/26 11:40:11;;;;;;;9.77;2.30;;;;;;;;;;5035769;28;20086;-70
2022/02/26 11:42:38;;;;;;;15.70;3.47;;;;;;;;;;5035294;28;20048;-71
2022/02/26 11:45:10;;;;;;;13.80;2.70;;;;;;;;;;5030891;28;20052;-71
2022/02/26 11:47:41;;;;;;;7.30;2.03;;;;;;;;;;5029157;28;20111;-70
2022/02/26 11:50:09;;;;;;;12.43;1.93;;;;;;;;;;5032651;28;20658;-71
2022/02/26 11:52:53;;;;;;;13.03;2.63;;;;;;;;;;5032671;28;20331;-71
2022/02/26 11:55:24;;;;;;;12.33;2.37;;;;;;;;;;5033175;28;20044;-71
2022/02/26 11:57:49;;;;;;;11.77;2.13;;;;;;;;;;5040634;28;20040;-71
2022/02/26 12:00:15;;;;;;;9.33;2.40;;;;;;;;;;5036358;28;20332;-71
2022/02/26 12:02:40;;;;;;;10.53;3.00;;;;;;;;;;5031317;28;20127;-71
2022/02/26 12:05:07;;;;;;;10.17;2.10;;;;;;;;;;5021619;28;20266;-71
2022/02/26 12:07:42;;;;;;;6.67;2.30;;;;;;;;;;5022598;28;20123;-71
2022/02/26 12:10:07;;;;;;;9.33;2.77;;;;;;;;;;5022793;28;20307;-71
2022/02/26 12:12:37;;;;;;;13.90;2.53;;;;;;;;;;5024295;28;20415;-71
2022/02/26 12:15:04;;;;;;;16.47;2.57;;;;;;;;;;5038401;28;20583;-71
2022/02/26 12:17:30;;;;;;;6.03;1.80;;;;;;;;;;5025705;28;20024;-71
2022/02/26 12:19:55;;;;;;;13.27;2.10;;;;;;;;;;5035915;28;20554;-71
2022/02/26 12:22:31;;;;;;;18.97;1.97;;;;;;;;;;5027402;28;20035;-71
2022/02/26 12:24:57;;;;;;;6.63;1.57;;;;;;;;;;5036689;28;20052;-70
2022/02/26 12:27:32;;;;;;;12.57;2.43;;;;;;;;;;5037332;28;20322;-71
2022/02/26 12:30:05;;;;;;;6.57;1.80;;;;;;;;;;5036534;28;20021;-71
2022/02/26 12:32:30;;;;;;;10.37;2.37;;;;;;;;;;5028897;28;20032;-71
2022/02/26 12:35:02;;;;;;;13.43;2.00;;;;;;;;;;5036181;28;20025;-71
2022/02/26 12:37:28;;;;;;;;;;;;;;;;;;5022545;28;20256;-70
2022/02/26 12:40:04;;;;;;;8.13;2.13;;;;;;;;;;5026157;28;19909;-71
2022/02/26 12:42:32;;;;;;;15.77;2.93;;;;;;;;;;5028435;28;20036;-72
2022/02/26 12:44:59;;;;;;;9.50;2.10;;;;;;;;;;5030741;28;20099;-71
2022/02/26 12:47:24;;;;;;;10.17;2.00;;;;;;;;;;5025903;28;20024;-71
2022/02/26 12:49:50;;;;;;;9.23;1.80;;;;;;;;;;5029631;28;20013;-72
2022/02/26 12:52:15;;;;;;;14.63;2.33;;;;;;;;;;5027030;28;20377;-72
2022/02/26 12:54:41;;;;;;;9.20;2.33;;;;;;;;;;5030097;28;20401;-72
2022/02/26 12:57:06;;;;;;;7.47;2.10;;;;;;;;;;5026479;28;20085;-72
2022/02/26 12:59:32;;;;;;;7.67;1.80;;;;;;;;;;5025826;28;20038;-72
2022/02/26 13:01:59;;;;;;;14.20;2.37;;;;;;;;;;4866936;28;4459390;-72
2022/02/26 13:04:28;;;;;;;8.23;2.20;;;;;;;;;;5031181;28;20095;-73
2022/02/26 13:06:59;;;;;;;11.77;2.03;;;;;;;;;;5030962;28;20021;-73
2022/02/26 13:09:26;;;;;;;8.60;1.77;;;;;;;;;;5032194;28;20108;-72
2022/02/26 13:11:52;;;;;;;6.43;1.73;;;;;;;;;;5025379;28;20464;-72
2022/02/26 13:14:18;;;;;;;7.45;1.55;;;;;;;;;;5031485;28;20055;-72
2022/02/26 13:16:54;;;;;;;5.95;1.35;;;;;;;;;;5027049;28;20597;-73
2022/02/26 13:19:19;;;;;;;11.40;1.67;;;;;;;;;;5025835;28;20022;-73
2022/02/26 13:21:44;;;;;;;6.28;1.40;;;;;;;;;;5032679;28;20029;-72
2022/02/26 13:24:10;;;;;;;11.32;1.75;;;;;;;;;;5036655;28;20147;-72
2022/02/26 13:26:35;;;;;;;6.50;1.58;;;;;;;;;;5033862;28;20051;-72
2022/02/26 13:29:08;;;;;;;10.65;2.10;;;;;;;;;;5030675;28;20378;-71
2022/02/26 13:31:34;;;;;;;5.60;1.40;;;;;;;;;;5035509;28;20488;-71
2022/02/26 13:34:28;;;;;;;4.53;1.15;;;;;;;;;;5037564;28;20340;-72
2022/02/26 13:36:54;;;;;;;8.93;1.60;;;;;;;;;;4995547;28;20029;-71
2022/02/26 13:39:20;;;;;;;8.73;1.77;;;;;;;;;;4990620;28;20036;-71
2022/02/26 13:41:55;;;;;;;12.13;1.75;;;;;;;;;;4990737;28;20314;-72
2022/02/26 13:44:29;;;;;;;6.32;1.83;;;;;;;;;;4989138;28;20076;-71
2022/02/26 13:46:54;;;;;;;5.53;1.25;;;;;;;;;;4992995;28;20034;-70
2022/02/26 13:49:20;;;;;;;10.77;1.80;;;;;;;;;;4986476;28;20446;-71
2022/02/26 13:51:46;;;;;;;10.75;1.70;;;;;;;;;;4994743;28;20093;-71
2022/02/26 13:54:15;;;;;;;6.63;1.83;;;;;;;;;;4993020;28;20045;-71
2022/02/26 13:56:40;;;;;;;8.65;1.63;;;;;;;;;;4994514;28;20069;-71
2022/02/26 13:59:07;;;;;;;11.00;2.22;;;;;;;;;;4989851;28;20487;-71
2022/02/26 14:01:48;;;;;;;10.07;1.65;;;;;;;;;;4990273;28;20081;-71
2022/02/26 14:04:18;;;;;;;7.38;1.80;;;;;;;;;;4991998;28;20050;-71
2022/02/26 14:06:46;;;;;;;4.05;1.35;;;;;;;;;;4987515;28;20587;-71
2022/02/26 14:09:22;;;;;;;13.23;1.45;;;;;;;;;;4989397;28;20457;-71
2022/02/26 14:11:58;;;;;;;6.43;1.48;;;;;;;;;;4985501;28;20427;-72
2022/02/26 14:14:26;;;;;;;9.10;1.95;;;;;;;;;;5024433;28;20042;-71
2022/02/26 14:16:55;;;;;;;5.93;1.35;;;;;;;;;;5022818;28;20017;-71
2022/02/26 14:19:20;;;;;;;8.55;2.05;;;;;;;;;;5031781;28;20640;-72
2022/02/26 14:21:46;;;;;;;8.80;1.60;;;;;;;;;;5039083;28;20224;-72
2022/02/26 14:24:12;;;;;;;7.15;1.85;;;;;;;;;;5026456;28;20254;-73
2022/02/26 14:26:37;;;;;;;3.45;1.10;;;;;;;;;;5028091;28;20032;-72
2022/02/26 14:29:03;;;;;;;5.78;1.60;;;;;;;;;;5022763;28;20108;-73